Stations météo

réclame
Mon MeteoGroup
Uccle, Belgique (6447): Température de l'air & dewpoint: 19.09.2017 22:00:00 - 25.09.2017 22:00:00 (CEST)Uccle, Belgique (6447): Vitesse du vent & gusts: 19.09.2017 22:00:00 - 25.09.2017 22:00:00 (CEST)Uccle, Belgique (6447): Direction du vent: 19.09.2017 22:00:00 - 25.09.2017 22:00:00 (CEST)Uccle, Belgique (6447): reduced air pressure: 19.09.2017 22:00:00 - 25.09.2017 22:00:00 (CEST)Uccle, Belgique (6447): Ensoleillement: 19.09.2017 22:00:00 - 25.09.2017 22:00:00 (CEST)Uccle, Belgique (6447): Quantités de précipitations: 19.09.2017 22:00:00 - 25.09.2017 22:00:00 (CEST)
Date & Time tt [°C] td [°C] ff [km/h] ff [knt] fx [km/h] fx [knt] dd ppp [hPa] sd [min] rr [mm]
25.09.2017 22:00:00 15,1 11,5 11 6 18 10 NE 1020,3 - -
25.09.2017 21:00:00 16,0 11,3 11 6 18 10 NE 1020,1 0 0,0
25.09.2017 20:00:00 16,6 10,7 11 6 19 10 NE 1019,9 0 0,0
25.09.2017 19:00:00 17,9 10,0 5 3 12 7 ENE 1019,5 16 0,0
25.09.2017 18:00:00 19,7 10,0 4 2 16 9 ENE 1019,2 60 0,0
25.09.2017 17:00:00 20,2 10,0 8 4 17 9 E 1019,0 60 0,0
25.09.2017 16:00:00 20,0 9,5 11 6 19 10 ENE 1019,0 60 0,0
25.09.2017 15:00:00 20,4 9,5 8 4 20 11 E 1019,2 60 0,0
25.09.2017 14:00:00 19,7 10,8 11 6 23 12 ENE 1019,4 60 0,0
25.09.2017 13:00:00 18,9 10,2 10 5 18 10 NE 1019,8 60 0,0
25.09.2017 12:00:00 17,6 10,5 5 3 13 7 ESE 1019,9 60 0,0
25.09.2017 11:00:00 16,4 12,1 6 3 12 7 ESE 1020,1 60 0,0
25.09.2017 10:00:00 13,8 12,2 6 3 14 8 E 1020,0 60 0,0
25.09.2017 09:00:00 10,9 10,2 7 4 12 6 E 1020,2 53 0,0
25.09.2017 08:00:00 10,4 9,7 4 2 13 7 E 1020,3 0 0,0
25.09.2017 07:00:00 10,3 9,4 8 5 16 9 E 1020,0 0 0,0
25.09.2017 06:00:00 10,7 9,8 8 4 15 8 E 1020,1 0 0,0
25.09.2017 05:00:00 10,8 9,7 6 3 13 7 E 1020,2 0 0,0
25.09.2017 04:00:00 11,2 9,8 5 3 15 8 ESE 1020,4 0 0,0
25.09.2017 03:00:00 11,7 10,0 7 4 13 7 E 1020,8 0 0,0
25.09.2017 02:00:00 12,8 10,7 7 4 19 10 E 1020,9 0 0,0
25.09.2017 01:00:00 13,2 10,9 9 5 19 10 E 1021,2 0 0,0
25.09.2017 00:00:00 13,6 11,1 8 4 19 10 E 1021,4 0 0,0
24.09.2017 23:00:00 14,2 11,3 8 5 19 11 E 1021,3 0 0,0
24.09.2017 22:00:00 14,8 11,2 10 5 20 11 E 1021,3 0 0,0
24.09.2017 21:00:00 15,2 10,6 9 5 16 9 E 1021,4 0 0,0
24.09.2017 20:00:00 16,6 10,4 7 4 15 8 ENE 1021,1 11 0,0
24.09.2017 19:00:00 18,9 9,6 6 3 19 10 E 1020,7 60 0,0
24.09.2017 18:00:00 20,3 8,4 10 5 23 12 ENE 1020,9 60 0,0
24.09.2017 17:00:00 20,7 8,9 10 5 23 12 ENE 1021,0 60 0,0
24.09.2017 16:00:00 20,9 8,7 9 5 20 11 ESE 1021,2 60 0,0
24.09.2017 15:00:00 20,5 10,0 8 4 21 12 ESE 1021,4 60 0,0
24.09.2017 14:00:00 19,9 9,9 7 4 21 11 ESE 1021,7 60 0,0
24.09.2017 13:00:00 19,2 11,0 10 5 19 11 ESE 1022,0 60 0,0
24.09.2017 12:00:00 17,9 12,5 4 2 8 4 SE 1022,2 60 0,0
24.09.2017 11:00:00 15,5 12,0 7 4 14 8 E 1022,2 60 0,0
24.09.2017 10:00:00 12,9 12,4 6 3 11 6 ESE 1022,1 60 0,0
24.09.2017 09:00:00 10,0 9,6 6 3 13 7 ESE 1021,9 47 0,0
24.09.2017 08:00:00 8,3 7,9 7 4 16 8 E 1021,8 0 0,0
24.09.2017 07:00:00 8,0 7,5 9 5 14 8 E 1021,7 0 0,0
24.09.2017 06:00:00 8,5 8,0 6 3 13 7 ENE 1021,5 0 0,0
24.09.2017 05:00:00 8,8 8,3 7 4 13 7 ENE 1021,7 0 0,0
24.09.2017 04:00:00 8,9 8,2 5 3 11 6 E 1021,7 0 0,0
24.09.2017 03:00:00 9,1 8,4 6 3 13 7 E 1022,0 0 0,0
24.09.2017 02:00:00 9,0 8,1 7 4 11 6 E 1022,0 0 0,0
24.09.2017 01:00:00 9,2 8,0 6 4 13 7 E 1022,2 0 0,0
24.09.2017 00:00:00 9,6 8,0 7 4 13 7 E 1022,4 0 0,0
23.09.2017 23:00:00 10,0 8,3 9 5 16 8 ENE 1022,7 0 0,0
23.09.2017 22:00:00 10,6 8,2 8 5 12 6 ENE 1022,9 0 0,0
23.09.2017 21:00:00 11,7 7,5 8 4 12 6 ENE 1022,5 0 0,0
23.09.2017 20:00:00 12,9 7,0 4 2 11 6 E 1022,5 27 0,0
23.09.2017 19:00:00 15,8 7,6 4 2 18 10 E 1022,5 60 0,0
23.09.2017 18:00:00 17,5 8,3 7 4 16 9 E 1022,3 60 0,0
23.09.2017 17:00:00 18,0 9,5 5 3 16 9 E 1022,4 60 0,0
23.09.2017 16:00:00 17,8 8,9 6 3 18 10 E 1023,1 59 0,0
23.09.2017 15:00:00 17,4 10,0 9 5 16 9 NE 1023,6 55 0,0
23.09.2017 14:00:00 16,8 10,0 7 4 17 9 E 1023,8 60 0,0
23.09.2017 13:00:00 16,4 10,3 8 5 17 9 E 1024,0 60 0,0
23.09.2017 12:00:00 14,8 11,1 10 6 17 9 E 1024,3 60 0,0
23.09.2017 11:00:00 13,1 12,6 6 3 13 7 E 1024,5 60 0,0
23.09.2017 10:00:00 11,9 11,7 5 3 11 6 E 1024,3 47 0,0
23.09.2017 09:00:00 9,3 9,0 4 2 7 4 E 1024,3 24 0,0
23.09.2017 08:00:00 8,7 8,5 4 2 8 5 E 1024,3 0 0,0
23.09.2017 07:00:00 8,4 8,1 6 3 10 5 E 1024,1 0 0,0
23.09.2017 06:00:00 8,4 8,0 5 3 9 5 E 1024,0 0 0,0
23.09.2017 05:00:00 8,5 8,1 6 3 8 4 NE 1024,1 0 0,0
23.09.2017 04:00:00 8,8 8,3 4 2 4 2 E 1024,2 0 0,0
23.09.2017 03:00:00 9,4 8,8 4 2 5 3 W 1024,2 0 0,0
23.09.2017 02:00:00 9,5 8,8 4 2 4 2 WSW 1023,9 0 0,0
23.09.2017 01:00:00 10,0 9,2 0 0 5 3 N 1023,7 0 0,0
23.09.2017 00:00:00 10,6 9,7 4 2 7 4 NNE 1023,6 0 0,0
22.09.2017 23:00:00 11,4 10,0 5 3 9 5 N 1023,6 0 0,0
22.09.2017 22:00:00 12,3 10,2 6 3 12 7 NNE 1023,2 0 0,0
22.09.2017 21:00:00 14,3 11,0 6 3 18 10 N 1022,7 0 0,0
22.09.2017 20:00:00 15,4 11,7 7 4 18 10 NNW 1022,1 0 0,0
22.09.2017 19:00:00 16,9 12,5 10 5 19 10 NNW 1021,4 25 0,0
22.09.2017 18:00:00 17,7 12,4 9 5 18 10 NW 1021,0 28 0,0
22.09.2017 17:00:00 17,4 12,3 9 5 20 11 W 1021,1 17 0,0
22.09.2017 16:00:00 17,5 13,1 8 4 15 8 SW 1021,0 12 0,0
22.09.2017 15:00:00 16,1 13,3 8 4 13 7 SW 1021,0 0 0,0
22.09.2017 14:00:00 15,2 12,9 7 4 14 7 SW 1021,1 0 0,0
22.09.2017 13:00:00 15,0 12,5 8 4 14 8 WSW 1020,9 0 0,0
22.09.2017 12:00:00 14,8 11,9 6 3 9 5 SW 1020,9 1 0,0
22.09.2017 11:00:00 14,0 11,5 4 2 10 5 W 1020,5 1 0,0
22.09.2017 10:00:00 12,9 10,6 6 3 12 7 WSW 1020,3 28 0,0
22.09.2017 09:00:00 11,6 9,8 4 2 7 4 SSW 1020,1 7 0,0
22.09.2017 08:00:00 11,3 9,8 4 2 10 6 SW 1019,6 0 0,0
22.09.2017 07:00:00 10,8 9,6 6 4 9 5 SSW 1019,3 0 0,0
22.09.2017 06:00:00 10,5 9,2 6 3 10 5 SSW 1019,1 0 0,0
22.09.2017 05:00:00 10,8 9,5 7 4 10 6 S 1019,1 0 0,0
22.09.2017 04:00:00 11,1 9,8 6 3 13 7 SSE 1019,1 0 0,0
22.09.2017 03:00:00 11,0 9,5 6 4 13 7 SE 1019,3 0 0,0
22.09.2017 02:00:00 11,1 9,6 7 4 11 6 SE 1019,3 0 0,0
22.09.2017 01:00:00 10,9 9,1 8 5 11 6 SE 1019,1 0 0,0
22.09.2017 00:00:00 11,1 9,0 8 4 10 5 SE 1019,1 0 0,0
21.09.2017 23:00:00 11,9 9,6 6 3 8 5 SSE 1019,2 0 0,0
21.09.2017 22:00:00 12,5 9,9 5 3 10 5 SSE 1019,3 0 0,0
21.09.2017 21:00:00 13,6 9,9 5 3 11 6 S 1019,0 0 0,0
21.09.2017 20:00:00 15,0 9,0 7 4 10 6 S 1018,4 0 0,0
21.09.2017 19:00:00 17,8 8,6 7 4 16 9 S 1018,0 44 0,0
21.09.2017 18:00:00 18,3 8,6 10 5 19 10 S 1017,9 28 0,0
21.09.2017 17:00:00 18,7 8,3 12 7 23 13 S 1018,0 51 0,0
21.09.2017 16:00:00 19,1 9,0 12 6 23 12 SSE 1018,0 50 0,0
21.09.2017 15:00:00 19,0 9,0 12 7 23 12 S 1018,7 54 0,0
21.09.2017 14:00:00 18,3 8,9 14 8 24 13 S 1019,1 60 0,0
21.09.2017 13:00:00 17,5 10,0 12 7 24 13 S 1019,4 60 0,0
21.09.2017 12:00:00 16,1 9,1 14 8 25 14 S 1019,8 - -
21.09.2017 11:00:00 14,4 9,2 12 7 22 12 S 1020,1 56 0,0
21.09.2017 10:00:00 12,7 9,0 13 7 26 14 SSE 1019,9 59 0,0
21.09.2017 09:00:00 10,1 7,9 17 9 26 14 SSE 1019,9 53 0,0
21.09.2017 08:00:00 9,5 7,5 14 8 24 13 SSE 1019,9 0 0,0
21.09.2017 07:00:00 9,7 7,7 17 9 24 13 SSE 1019,8 0 0,0
21.09.2017 06:00:00 9,7 7,7 13 7 22 12 SSE 1019,9 0 0,0
21.09.2017 05:00:00 9,8 7,8 14 7 18 10 SSE 1019,9 0 0,0
21.09.2017 04:00:00 10,2 8,0 10 6 20 11 SSE 1020,2 0 0,0
21.09.2017 03:00:00 10,7 8,2 12 6 18 10 SSE 1020,5 0 0,0
21.09.2017 02:00:00 11,1 8,4 11 6 20 11 S 1020,5 0 0,0
21.09.2017 01:00:00 12,0 8,9 11 6 18 10 S 1020,3 0 0,0
21.09.2017 00:00:00 12,7 9,1 10 5 18 10 S 1020,4 0 0,0
20.09.2017 23:00:00 13,4 9,6 10 5 18 10 SSE 1020,4 0 0,0
20.09.2017 22:00:00 13,6 10,2 11 6 18 10 S 1020,3 0 0,0
20.09.2017 21:00:00 14,0 10,0 9 5 15 8 S 1020,4 0 0,0
20.09.2017 20:00:00 14,5 9,7 11 6 14 8 S 1020,2 0 0,0
20.09.2017 19:00:00 15,8 8,9 8 4 27 14 SSW 1020,0 10 0,0
20.09.2017 18:00:00 16,3 8,9 10 5 28 15 SSW 1020,1 31 0,0
20.09.2017 17:00:00 16,8 9,5 13 7 26 14 SW 1020,4 17 0,0
20.09.2017 16:00:00 16,9 9,7 14 8 25 14 S 1020,5 30 0,0
20.09.2017 15:00:00 16,9 9,6 10 5 26 14 SW 1020,8 34 0,0
20.09.2017 14:00:00 16,3 9,3 10 6 22 12 W 1021,1 34 0,0
20.09.2017 13:00:00 16,0 11,1 13 7 26 14 SW 1021,2 52 0,0
20.09.2017 12:00:00 14,7 10,7 11 6 23 12 SW 1021,6 57 0,0
20.09.2017 11:00:00 13,2 10,1 12 7 25 13 SW 1021,3 37 0,0
20.09.2017 10:00:00 11,8 9,5 9 5 18 10 SSW 1021,4 57 0,0
20.09.2017 09:00:00 9,4 8,7 8 5 14 8 SSW 1021,5 43 0,0
20.09.2017 08:00:00 9,1 8,4 7 4 12 6 SSW 1021,4 1 0,0
20.09.2017 07:00:00 9,3 8,7 6 3 11 6 S 1021,2 0 0,0
20.09.2017 06:00:00 10,4 9,8 6 3 13 7 SSW 1021,3 0 0,0
20.09.2017 05:00:00 11,1 10,5 6 3 13 7 SW 1021,2 0 0,0
20.09.2017 04:00:00 11,1 10,6 6 4 12 7 WSW 1021,4 0 0,0
20.09.2017 03:00:00 10,7 10,1 5 3 10 6 WSW 1021,7 0 0,0
20.09.2017 02:00:00 11,2 10,6 7 4 12 6 SW 1021,7 0 0,0
20.09.2017 01:00:00 11,4 10,7 8 4 12 6 WSW 1021,7 0 0,0
20.09.2017 00:00:00 11,3 10,4 5 3 8 5 WSW 1021,8 0 0,0
19.09.2017 23:00:00 11,7 10,2 4 2 11 6 SW 1021,8 0 0,0
19.09.2017 22:00:00 12,8 9,9 5 3 11 6 WSW 1021,5 0 0,0

tt = Température de l'air
td = dewpoint
ff = Vitesse du vent
fx = gusts
dd = Direction du vent
ppp = reduced air pressure
sd = Ensoleillement
rr = Quantités de précipitations

stations d'obs. à proximité